Time;durP1;ratioP1;P1;durP2;ratioP2;P2;SDS_P1;SDS_P2;PMS_P1;PMS_P2;Temp;Humidity;BMP_temperature;BMP_pressure;BME280_temperature;BME280_humidity;BME280_pressure;Samples;Min_cycle;Max_cycle;Signal;HPM_P1;HPM_P2
2022/10/18 00:02:31;;;;;;;20.63;16.03;;;;;;;-144.22;100.00;60274.75;6050045;29;20230;-68
2022/10/18 00:05:33;;;;;;;18.07;14.73;;;;;;;-144.22;100.00;60274.75;6063704;29;20245;-68
2022/10/18 00:08:37;;;;;;;19.43;14.30;;;;;;;-144.22;100.00;60274.75;6063868;29;20226;-68
2022/10/18 00:11:39;;;;;;;17.73;14.83;;;;;;;-144.22;100.00;60274.75;6065119;29;20231;-68
2022/10/18 00:14:41;;;;;;;18.07;15.37;;;;;;;-144.22;100.00;60274.75;6062913;29;20243;-68
2022/10/18 00:17:44;;;;;;;20.37;15.13;;;;;;;-144.22;100.00;60274.75;6047494;29;20234;-68
2022/10/18 00:20:58;;;;;;;20.47;15.10;;;;;;;-144.22;100.00;60274.75;6064515;29;20239;-68
2022/10/18 00:24:00;;;;;;;18.53;14.73;;;;;;;-144.22;100.00;60274.75;6040730;29;20239;-69
2022/10/18 00:27:03;;;;;;;18.03;14.77;;;;;;;-144.22;100.00;60274.75;6041940;29;20583;-68
2022/10/18 00:30:05;;;;;;;19.40;13.83;;;;;;;-144.22;100.00;60274.75;6060955;29;20233;-67
2022/10/18 00:33:07;;;;;;;18.87;14.93;;;;;;;-144.22;100.00;60274.75;6079750;29;20278;-68
2022/10/18 00:36:10;;;;;;;16.47;13.93;;;;;;;-144.22;100.00;60274.75;6063208;29;20227;-68
2022/10/18 00:39:19;;;;;;;18.67;15.50;;;;;;;-144.22;100.00;60274.75;6063051;29;20245;-68
2022/10/18 00:42:24;;;;;;;17.33;13.73;;;;;;;-144.22;100.00;60274.75;6062483;29;20244;-68
2022/10/18 00:45:26;;;;;;;21.03;14.93;;;;;;;-144.22;100.00;60274.75;6064425;29;20756;-68
2022/10/18 00:48:28;;;;;;;19.80;14.53;;;;;;;-144.22;100.00;60274.75;6063041;29;20710;-68
2022/10/18 00:51:38;;;;;;;21.13;14.77;;;;;;;-144.22;100.00;60274.75;6063807;29;20373;-68
2022/10/18 00:54:43;;;;;;;18.77;13.93;;;;;;;-144.22;100.00;60274.75;6068904;29;20240;-68
2022/10/18 00:57:46;;;;;;;18.63;14.03;;;;;;;-144.22;100.00;60274.75;6086718;29;20227;-68
2022/10/18 01:00:48;;;;;;;19.30;14.87;;;;;;;-144.22;100.00;60274.75;6084295;29;20232;-68
2022/10/18 01:03:51;;;;;;;19.00;14.37;;;;;;;-144.22;100.00;60274.75;6081595;29;20255;-68
2022/10/18 01:07:24;;;;;;;21.17;14.63;;;;;;;-144.22;100.00;60274.75;6091085;29;20345;-70
2022/10/18 01:10:47;;;;;;;16.33;13.43;;;;;;;-144.22;100.00;60274.75;6069231;29;20241;-68
2022/10/18 01:14:17;;;;;;;20.87;15.07;;;;;;;-144.22;100.00;60274.75;6086408;29;20232;-68
2022/10/18 01:17:23;;;;;;;19.37;15.20;;;;;;;-144.22;100.00;60274.75;6073352;29;20664;-68
2022/10/18 01:20:57;;;;;;;24.57;14.03;;;;;;;-144.22;100.00;60274.75;6076146;29;20235;-68
2022/10/18 01:24:26;;;;;;;20.83;14.77;;;;;;;-144.22;100.00;60274.75;6084697;29;20233;-68
2022/10/18 01:27:46;;;;;;;19.47;14.97;;;;;;;-144.22;100.00;60274.75;6069057;29;20657;-68
2022/10/18 01:30:54;;;;;;;19.30;14.57;;;;;;;-144.22;100.00;60274.75;6086608;29;20327;-70
2022/10/18 01:33:59;;;;;;;20.40;14.87;;;;;;;-144.22;100.00;60274.75;6074565;29;20584;-68
2022/10/18 01:37:10;;;;;;;20.50;15.50;;;;;;;-144.22;100.00;60274.75;6070223;29;20722;-68
2022/10/18 01:40:16;;;;;;;16.77;14.93;;;;;;;-144.22;100.00;60274.75;6069362;29;20240;-67
2022/10/18 01:43:22;;;;;;;18.33;14.63;;;;;;;-144.22;100.00;60274.75;6068265;29;20231;-67
2022/10/18 01:46:25;;;;;;;18.43;14.23;;;;;;;-144.22;100.00;60274.75;6085457;29;20704;-68
2022/10/18 01:49:27;;;;;;;16.37;13.97;;;;;;;-144.22;100.00;60274.75;6086188;29;20231;-67
2022/10/18 01:52:30;;;;;;;18.17;14.77;;;;;;;-144.22;100.00;60274.75;6067718;29;20247;-68
2022/10/18 01:55:43;;;;;;;20.60;14.53;;;;;;;-144.22;100.00;60274.75;6068355;29;20236;-67
2022/10/18 01:59:06;;;;;;;20.60;15.30;;;;;;;-144.22;100.00;60274.75;6053398;29;20240;-67
2022/10/18 02:02:33;;;;;;;24.93;16.37;;;;;;;-144.22;100.00;60274.75;6073498;29;20716;-68
2022/10/18 02:05:53;;;;;;;18.83;15.20;;;;;;;-144.22;100.00;60274.75;6079484;29;20614;-68
2022/10/18 02:09:19;;;;;;;17.93;14.73;;;;;;;-144.22;100.00;60274.75;6085653;29;20243;-67
2022/10/18 02:12:22;;;;;;;18.43;14.37;;;;;;;-144.22;100.00;60274.75;6085866;29;20236;-67
2022/10/18 02:15:31;;;;;;;19.00;14.17;;;;;;;-144.22;100.00;60274.75;6085703;29;20307;-67
2022/10/18 02:18:44;;;;;;;15.90;13.13;;;;;;;-144.22;100.00;60274.75;6084918;29;20223;-68
2022/10/18 02:21:47;;;;;;;18.20;14.83;;;;;;;-144.22;100.00;60274.75;6068657;29;20229;-68
2022/10/18 02:24:53;;;;;;;19.87;14.30;;;;;;;-144.22;100.00;60274.75;6068624;29;20224;-68
2022/10/18 02:27:55;;;;;;;16.43;14.03;;;;;;;-144.22;100.00;60274.75;6085409;29;20232;-67
2022/10/18 02:31:19;;;;;;;18.37;14.07;;;;;;;-144.22;100.00;60274.75;6086194;29;20239;-67
2022/10/18 02:34:22;;;;;;;19.87;14.33;;;;;;;-144.22;100.00;60274.75;6062042;29;20240;-67
2022/10/18 02:37:31;;;;;;;15.00;13.40;;;;;;;-144.22;100.00;60274.75;6084963;29;20240;-67
2022/10/18 02:40:33;;;;;;;15.33;13.73;;;;;;;-144.22;100.00;60274.75;6084186;29;20708;-67
2022/10/18 02:43:36;;;;;;;19.63;14.80;;;;;;;-144.22;100.00;60274.75;6085664;29;20261;-68
2022/10/18 02:46:38;;;;;;;16.80;13.90;;;;;;;-144.22;100.00;60274.75;6084549;29;20240;-67
2022/10/18 02:49:40;;;;;;;18.93;14.03;;;;;;;-144.22;100.00;60274.75;6085920;29;20235;-67
2022/10/18 02:52:43;;;;;;;15.40;13.60;;;;;;;-144.22;100.00;60274.75;6085287;29;20245;-67
2022/10/18 02:55:44;;;;;;;18.13;13.77;;;;;;;-144.22;100.00;60274.75;6084889;29;20239;-67
2022/10/18 02:58:46;;;;;;;15.73;14.03;;;;;;;-144.22;100.00;60274.75;6085645;29;20243;-67
2022/10/18 03:01:48;;;;;;;19.40;13.63;;;;;;;-144.22;100.00;60274.75;6075813;29;20240;-67
2022/10/18 03:04:50;;;;;;;17.33;13.90;;;;;;;-144.22;100.00;60274.75;6082462;29;20244;-67
2022/10/18 03:07:55;;;;;;;22.80;14.40;;;;;;;-144.22;100.00;60274.75;6089540;29;20231;-68
2022/10/18 03:10:57;;;;;;;17.33;13.80;;;;;;;-144.22;100.00;60274.75;6089836;29;20232;-68
2022/10/18 03:13:59;;;;;;;17.60;13.47;;;;;;;-144.22;100.00;60274.75;6089669;29;20278;-68
2022/10/18 03:17:01;;;;;;;18.37;14.50;;;;;;;-144.22;100.00;60274.75;6088105;29;20240;-68
2022/10/18 03:20:03;;;;;;;15.83;13.87;;;;;;;-144.22;100.00;60274.75;6088198;29;20239;-67
2022/10/18 03:23:06;;;;;;;17.27;13.60;;;;;;;-144.22;100.00;60274.75;6089174;29;20231;-67
2022/10/18 03:26:08;;;;;;;17.97;13.47;;;;;;;-144.22;100.00;60274.75;6089156;29;20231;-68
2022/10/18 03:29:10;;;;;;;19.10;13.87;;;;;;;-144.22;100.00;60274.75;6088461;29;20239;-67
2022/10/18 03:32:12;;;;;;;19.60;14.47;;;;;;;-144.22;100.00;60274.75;6087578;29;20232;-68
2022/10/18 03:35:14;;;;;;;16.27;13.83;;;;;;;-144.22;100.00;60274.75;6089726;29;20254;-68
2022/10/18 03:38:16;;;;;;;18.73;14.80;;;;;;;-144.22;100.00;60274.75;6092602;29;20243;-68
2022/10/18 03:41:19;;;;;;;18.83;15.17;;;;;;;-144.22;100.00;60274.75;6092559;29;20664;-68
2022/10/18 03:44:21;;;;;;;20.73;14.63;;;;;;;-144.22;100.00;60274.75;6092705;29;20287;-69
2022/10/18 03:47:23;;;;;;;22.67;14.87;;;;;;;-144.22;100.00;60274.75;6094813;29;20604;-68
2022/10/18 03:50:25;;;;;;;20.63;14.87;;;;;;;-144.22;100.00;60274.75;6076931;29;20244;-68
2022/10/18 03:53:27;;;;;;;20.13;15.53;;;;;;;-144.22;100.00;60274.75;6091129;29;20232;-69
2022/10/18 03:56:29;;;;;;;19.53;15.03;;;;;;;-144.22;100.00;60274.75;6093093;29;20236;-68
2022/10/18 03:59:30;;;;;;;26.20;15.40;;;;;;;-144.22;100.00;60274.75;6059139;29;20240;-69
2022/10/18 04:02:32;;;;;;;18.23;14.40;;;;;;;-144.22;100.00;60274.75;6082531;29;20775;-69
2022/10/18 04:05:35;;;;;;;16.57;13.73;;;;;;;-144.22;100.00;60274.75;6088164;29;20223;-68
2022/10/18 04:08:37;;;;;;;17.33;13.77;;;;;;;-144.22;100.00;60274.75;6070745;29;20242;-68
2022/10/18 04:11:39;;;;;;;18.63;15.10;;;;;;;-144.22;100.00;60274.75;6088358;29;20227;-69
2022/10/18 04:14:41;;;;;;;16.17;13.50;;;;;;;-144.22;100.00;60274.75;6087381;29;20220;-69
2022/10/18 04:17:43;;;;;;;20.77;15.60;;;;;;;-144.22;100.00;60274.75;6071460;29;20607;-70
2022/10/18 04:20:45;;;;;;;17.87;14.17;;;;;;;-144.22;100.00;60274.75;6079460;29;20704;-69
2022/10/18 04:23:48;;;;;;;17.07;13.70;;;;;;;-144.22;100.00;60274.75;6083607;29;20690;-69
2022/10/18 04:26:50;;;;;;;17.10;13.63;;;;;;;-144.22;100.00;60274.75;6086639;29;20650;-69
2022/10/18 04:29:52;;;;;;;19.43;14.47;;;;;;;-144.22;100.00;60274.75;6088532;29;20231;-68
2022/10/18 04:32:54;;;;;;;16.50;13.70;;;;;;;-144.22;100.00;60274.75;6070636;29;20254;-69
2022/10/18 04:35:56;;;;;;;19.20;14.43;;;;;;;-144.22;100.00;60274.75;6086724;29;20399;-68
2022/10/18 04:38:58;;;;;;;18.53;14.10;;;;;;;-144.22;100.00;60274.75;6086834;29;20234;-68
2022/10/18 04:42:00;;;;;;;17.30;14.40;;;;;;;-144.22;100.00;60274.75;6086855;29;20605;-68
2022/10/18 04:45:03;;;;;;;19.73;15.53;;;;;;;-144.22;100.00;60274.75;6070154;29;20691;-68
2022/10/18 04:48:05;;;;;;;16.93;14.00;;;;;;;-144.22;100.00;60274.75;6087184;29;20714;-68
2022/10/18 04:51:07;;;;;;;17.97;13.97;;;;;;;-144.22;100.00;60274.75;6087745;29;20242;-68
2022/10/18 04:54:09;;;;;;;20.50;14.10;;;;;;;-144.22;100.00;60274.75;6087202;29;20219;-68
2022/10/18 04:57:11;;;;;;;18.90;14.23;;;;;;;-144.22;100.00;60274.75;6070166;29;20723;-68
2022/10/18 05:00:13;;;;;;;18.27;14.57;;;;;;;-144.22;100.00;60274.75;6087759;29;20249;-68
2022/10/18 05:03:16;;;;;;;16.93;13.60;;;;;;;-144.22;100.00;60274.75;6056952;29;20210;-68
2022/10/18 05:06:17;;;;;;;16.63;13.93;;;;;;;-144.22;100.00;60274.75;6085921;29;20208;-68
2022/10/18 05:09:23;;;;;;;18.43;14.90;;;;;;;-144.22;100.00;60274.75;6087709;29;20219;-68
2022/10/18 05:12:25;;;;;;;16.80;14.33;;;;;;;-144.22;100.00;60274.75;6087042;29;20722;-68
2022/10/18 05:15:27;;;;;;;17.83;14.20;;;;;;;-144.22;100.00;60274.75;6086828;29;20227;-68
2022/10/18 05:18:29;;;;;;;20.43;15.47;;;;;;;-144.22;100.00;60274.75;6086851;29;20802;-68
2022/10/18 05:21:32;;;;;;;17.47;14.60;;;;;;;-144.22;100.00;60274.75;6086834;29;20237;-68
2022/10/18 05:24:34;;;;;;;19.13;14.67;;;;;;;-144.22;100.00;60274.75;6068663;29;20234;-68
2022/10/18 05:27:36;;;;;;;18.37;14.27;;;;;;;-144.22;100.00;60274.75;6087814;29;20590;-68
2022/10/18 05:30:39;;;;;;;22.17;14.27;;;;;;;-144.22;100.00;60274.75;6069271;29;20242;-67
2022/10/18 05:33:41;;;;;;;20.23;14.53;;;;;;;-144.22;100.00;60274.75;6087071;29;20220;-67
2022/10/18 05:36:43;;;;;;;17.97;14.27;;;;;;;-144.22;100.00;60274.75;6086148;29;20242;-68
2022/10/18 05:39:45;;;;;;;18.27;14.50;;;;;;;-144.22;100.00;60274.75;6084575;29;20241;-68
2022/10/18 05:42:50;;;;;;;22.63;16.27;;;;;;;-144.22;100.00;60274.75;6085499;29;20743;-68
2022/10/18 05:45:52;;;;;;;19.17;15.00;;;;;;;-144.22;100.00;60274.75;6085663;29;20238;-68
2022/10/18 05:48:54;;;;;;;17.53;14.27;;;;;;;-144.22;100.00;60274.75;6085720;29;20770;-68
2022/10/18 05:51:56;;;;;;;19.43;14.67;;;;;;;-144.22;100.00;60274.75;6069290;29;20270;-68
2022/10/18 05:54:58;;;;;;;21.47;16.90;;;;;;;-144.22;100.00;60274.75;6084761;29;20318;-68
2022/10/18 05:58:01;;;;;;;18.13;14.87;;;;;;;-144.22;100.00;60274.75;6086112;29;20243;-68
2022/10/18 06:01:05;;;;;;;23.33;15.03;;;;;;;-144.22;100.00;60274.75;6085080;29;20244;-68
2022/10/18 06:04:09;;;;;;;17.33;14.20;;;;;;;-144.22;100.00;60274.75;6069794;29;20240;-69
2022/10/18 06:07:11;;;;;;;18.23;15.07;;;;;;;-144.22;100.00;60274.75;6068777;29;20239;-68
2022/10/18 06:10:12;;;;;;;18.73;14.83;;;;;;;-144.22;100.00;60274.75;6084673;29;20243;-68
2022/10/18 06:13:14;;;;;;;20.73;14.00;;;;;;;-144.22;100.00;60274.75;6085460;29;20235;-68
2022/10/18 06:16:21;;;;;;;18.77;15.13;;;;;;;-144.22;100.00;60274.75;6067735;29;20240;-68
2022/10/18 06:19:23;;;;;;;20.10;14.93;;;;;;;-144.22;100.00;60274.75;6085070;29;20227;-68
2022/10/18 06:22:25;;;;;;;19.73;14.77;;;;;;;-144.22;100.00;60274.75;6084070;29;20239;-68
2022/10/18 06:25:27;;;;;;;17.53;14.37;;;;;;;-144.22;100.00;60274.75;6086617;29;20243;-68
2022/10/18 06:28:29;;;;;;;17.77;13.83;;;;;;;-144.22;100.00;60274.75;6068552;29;20600;-68
2022/10/18 06:31:31;;;;;;;18.27;14.57;;;;;;;-144.22;100.00;60274.75;6069117;29;20247;-68
2022/10/18 06:34:33;;;;;;;19.47;15.43;;;;;;;-144.22;100.00;60274.75;6085571;29;20234;-68
2022/10/18 06:37:36;;;;;;;21.27;16.37;;;;;;;-144.22;100.00;60274.75;6085202;29;20857;-67
2022/10/18 06:40:38;;;;;;;16.67;14.30;;;;;;;-144.22;100.00;60274.75;6085913;29;20714;-68
2022/10/18 06:43:41;;;;;;;20.20;16.70;;;;;;;-144.22;100.00;60274.75;6074190;29;20660;-68
2022/10/18 06:46:44;;;;;;;19.60;16.20;;;;;;;-144.22;100.00;60274.75;6089030;29;20727;-68
2022/10/18 06:49:46;;;;;;;22.03;16.93;;;;;;;-144.22;100.00;60274.75;6089673;29;20670;-68
2022/10/18 06:52:51;;;;;;;19.43;15.70;;;;;;;-144.22;100.00;60274.75;6089128;29;20723;-68
2022/10/18 06:56:06;;;;;;;21.37;16.37;;;;;;;-144.22;100.00;60274.75;6088805;29;20590;-68
2022/10/18 06:59:08;;;;;;;19.37;15.80;;;;;;;-144.22;100.00;60274.75;6090381;29;20244;-68
2022/10/18 07:02:14;;;;;;;19.27;16.07;;;;;;;-144.22;100.00;60274.75;6077592;29;20244;-69
2022/10/18 07:05:17;;;;;;;18.73;16.17;;;;;;;-144.22;100.00;60274.75;6085877;29;20247;-69
2022/10/18 07:08:18;;;;;;;21.43;17.33;;;;;;;-144.22;100.00;60274.75;6072705;29;20249;-69
2022/10/18 07:11:25;;;;;;;20.10;16.23;;;;;;;-144.22;100.00;60274.75;6088671;29;20607;-69
2022/10/18 07:14:27;;;;;;;21.23;16.70;;;;;;;-144.22;100.00;60274.75;6088600;29;20738;-70
2022/10/18 07:17:30;;;;;;;17.70;14.87;;;;;;;-144.22;100.00;60274.75;6089678;29;20220;-69
2022/10/18 07:20:32;;;;;;;17.90;15.57;;;;;;;-144.22;100.00;60274.75;6088310;29;20720;-68
2022/10/18 07:23:36;;;;;;;17.60;14.93;;;;;;;-144.22;100.00;60274.75;6088794;29;20299;-68
2022/10/18 07:26:38;;;;;;;18.27;15.70;;;;;;;-144.22;100.00;60274.75;6071037;29;20306;-67
2022/10/18 07:29:40;;;;;;;20.57;15.30;;;;;;;-144.22;100.00;60274.75;6071984;29;20236;-69
2022/10/18 07:32:42;;;;;;;19.50;16.87;;;;;;;-144.22;100.00;60274.75;6087824;29;20684;-68
2022/10/18 07:35:44;;;;;;;18.83;16.30;;;;;;;-144.22;100.00;60274.75;6063922;29;20240;-68
2022/10/18 07:38:48;;;;;;;19.43;16.70;;;;;;;-144.22;100.00;60274.75;6076034;29;21245;-68
2022/10/18 07:41:50;;;;;;;19.13;15.33;;;;;;;-144.22;100.00;60274.75;6071485;29;20708;-68
2022/10/18 07:44:52;;;;;;;19.27;15.70;;;;;;;-144.22;100.00;60274.75;6088830;29;20708;-68
2022/10/18 07:47:55;;;;;;;21.23;16.80;;;;;;;-144.22;100.00;60274.75;6087186;29;20872;-68
2022/10/18 07:50:59;;;;;;;18.87;16.50;;;;;;;-144.22;100.00;60274.75;6088066;29;20240;-69
2022/10/18 07:54:01;;;;;;;22.73;17.67;;;;;;;-144.22;100.00;60274.75;6054515;29;20636;-70
2022/10/18 07:57:04;;;;;;;25.57;20.30;;;;;;;-144.22;100.00;60274.75;6088384;29;20245;-68
2022/10/18 08:00:07;;;;;;;25.60;19.63;;;;;;;-144.22;100.00;60274.75;6073801;29;20604;-68
2022/10/18 08:03:12;;;;;;;19.93;17.83;;;;;;;-144.22;100.00;60274.75;6085643;29;20358;-70
2022/10/18 08:06:17;;;;;;;25.00;19.70;;;;;;;-144.22;100.00;60274.75;6075561;29;20223;-69
2022/10/18 08:09:19;;;;;;;19.90;17.80;;;;;;;-144.22;100.00;60274.75;6086813;29;20238;-69
2022/10/18 08:12:22;;;;;;;20.60;17.43;;;;;;;-144.22;100.00;60274.75;6087943;29;20239;-69
2022/10/18 08:15:24;;;;;;;19.23;17.17;;;;;;;-144.22;100.00;60274.75;6087335;29;20234;-68
2022/10/18 08:18:26;;;;;;;20.70;15.93;;;;;;;-144.22;100.00;60274.75;6087698;29;20666;-69
2022/10/18 08:21:28;;;;;;;18.27;15.77;;;;;;;-144.22;100.00;60274.75;6087198;29;20241;-69
2022/10/18 08:24:30;;;;;;;19.30;16.70;;;;;;;-144.22;100.00;60274.75;6087852;29;20258;-68
2022/10/18 08:27:32;;;;;;;18.27;15.07;;;;;;;-144.22;100.00;60274.75;6087820;29;20234;-69
2022/10/18 08:30:35;;;;;;;17.03;15.33;;;;;;;24.45;42.93;98751.47;6070977;29;20315;-69
2022/10/18 08:33:38;;;;;;;16.57;14.57;;;;;;;13.42;91.98;98745.47;6087709;29;20716;-68
2022/10/18 08:36:40;;;;;;;16.43;13.33;;;;;;;13.65;91.24;98742.78;6070164;29;20236;-68
2022/10/18 08:39:42;;;;;;;15.97;13.07;;;;;;;13.86;90.45;98735.00;6087476;29;20314;-68
2022/10/18 08:42:59;;;;;;;14.10;12.50;;;;;;;16.55;100.00;60274.75;6086091;29;20271;-69
2022/10/18 08:46:01;;;;;;;13.97;12.57;;;;;;;-144.22;100.00;60274.75;6087424;29;20246;-69
2022/10/18 08:49:06;;;;;;;17.47;12.20;;;;;;;14.32;100.00;60274.75;6047109;29;20243;-68
2022/10/18 08:52:30;;;;;;;14.87;12.13;;;;;;;-144.22;100.00;60274.75;6081582;29;20243;-68
2022/10/18 08:55:40;;;;;;;14.30;12.80;;;;;;;-144.22;100.00;60274.75;6069824;29;20291;-68
2022/10/18 08:58:43;;;;;;;13.63;12.23;;;;;;;-144.22;100.00;60274.75;6086903;29;20783;-68
2022/10/18 09:02:10;;;;;;;16.00;12.50;;;;;;;-144.22;100.00;60274.75;6078374;29;20620;-68
2022/10/18 09:05:26;;;;;;;14.37;11.57;;;;;;;-144.22;100.00;60274.75;6076711;29;20235;-68
2022/10/18 09:08:31;;;;;;;15.87;12.03;;;;;;;15.51;100.00;60274.75;6086312;29;20232;-67
2022/10/18 09:11:53;;;;;;;14.23;11.27;;;;;;;-144.22;100.00;60274.75;6086087;29;20582;-69
2022/10/18 09:15:22;;;;;;;12.37;11.10;;;;;;;-144.22;100.00;60274.75;6085348;29;20959;-69
2022/10/18 09:18:45;;;;;;;11.50;10.40;;;;;;;-144.22;100.00;60274.75;6069675;29;20536;-69
2022/10/18 09:21:52;;;;;;;11.70;10.03;;;;;;;19.15;100.00;60274.75;6085846;29;20241;-68
2022/10/18 09:25:12;;;;;;;11.30;9.90;;;;;;;-144.22;100.00;60274.75;6070624;29;20231;-68
2022/10/18 09:28:50;;;;;;;11.83;10.43;;;;;;;-144.22;100.00;60274.75;6085902;29;20247;-68
2022/10/18 09:32:09;;;;;;;15.37;11.47;;;;;;;17.39;100.00;60274.75;6056247;29;20247;-68
2022/10/18 09:35:29;;;;;;;14.37;10.77;;;;;;;-144.22;100.00;60274.75;6069342;29;20232;-68
2022/10/18 09:38:45;;;;;;;11.80;10.20;;;;;;;-144.22;100.00;60274.75;6086286;29;20262;-69
2022/10/18 09:41:55;;;;;;;11.27;9.97;;;;;;;18.16;100.00;103558.78;6086431;29;20248;-68
2022/10/18 09:45:18;;;;;;;12.20;10.27;;;;;;;-144.22;100.00;60274.75;6085352;29;20230;-70
2022/10/18 09:48:26;;;;;;;11.63;9.40;;;;;;;-144.22;100.00;60274.75;6068745;29;20231;-69
2022/10/18 09:51:34;;;;;;;12.07;10.50;;;;;;;18.74;100.00;60274.75;6085943;29;20235;-68
2022/10/18 09:54:46;;;;;;;15.07;10.37;;;;;;;-144.22;100.00;60274.75;6084845;29;20236;-69
2022/10/18 09:57:56;;;;;;;15.60;11.20;;;;;;;-144.22;100.00;60274.75;6070141;29;20243;-71
2022/10/18 10:00:59;;;;;;;12.30;9.30;;;;;;;-144.22;100.00;60274.75;6082478;29;20216;-68
2022/10/18 10:04:01;;;;;;;13.23;9.90;;;;;;;-144.22;100.00;60274.75;6076677;29;20228;-69
2022/10/18 10:07:26;;;;;;;11.50;9.87;;;;;;;-144.22;100.00;60274.75;6085788;29;20232;-68
2022/10/18 10:10:37;;;;;;;9.83;8.80;;;;;;;-144.22;100.00;60274.75;6084198;29;20331;-68
2022/10/18 10:13:39;;;;;;;10.90;9.27;;;;;;;188.01;100.00;60274.75;6084866;29;20247;-69
2022/10/18 10:16:51;;;;;;;12.17;10.13;;;;;;;-144.22;100.00;60274.75;6086080;29;20242;-68
2022/10/18 10:20:03;;;;;;;11.20;8.43;;;;;;;-144.22;100.00;60274.75;6090459;29;20228;-68
2022/10/18 10:23:18;;;;;;;9.90;8.90;;;;;;;-144.22;100.00;60274.75;6090504;29;20630;-68
2022/10/18 10:26:33;;;;;;;11.40;8.17;;;;;;;20.44;100.00;60274.75;6072948;29;20252;-68
2022/10/18 10:29:44;;;;;;;12.03;7.70;;;;;;;-144.22;100.00;60274.75;6090798;29;20908;-69
2022/10/18 10:32:48;;;;;;;8.40;7.53;;;;;;;-144.22;100.00;60274.75;6066801;29;20628;-70
2022/10/18 10:35:58;;;;;;;12.37;7.43;;;;;;;-144.22;100.00;60274.75;6087056;29;20738;-70
2022/10/18 10:39:11;;;;;;;9.77;7.73;;;;;;;-144.22;100.00;60274.75;6089770;29;20228;-70
2022/10/18 10:42:13;;;;;;;9.67;7.83;;;;;;;20.44;100.00;60274.75;6072435;29;20258;-69
2022/10/18 10:45:15;;;;;;;10.13;6.83;;;;;;;-144.22;100.00;60274.75;6089762;29;20220;-70
2022/10/18 10:48:19;;;;;;;9.73;7.53;;;;;;;-144.22;100.00;60274.75;6089363;29;20224;-69
2022/10/18 10:51:37;;;;;;;9.60;7.60;;;;;;;-144.22;100.00;60274.75;6089277;29;20379;-70
2022/10/18 10:54:43;;;;;;;9.00;8.10;;;;;;;-144.22;100.00;60274.75;6089202;29;20239;-69
2022/10/18 10:57:51;;;;;;;9.93;7.73;;;;;;;-144.22;100.00;60274.75;6089027;29;20606;-68
2022/10/18 11:00:56;;;;;;;13.60;8.67;;;;;;;-144.22;100.00;60274.75;6087934;29;20231;-69
2022/10/18 11:04:02;;;;;;;12.03;8.30;;;;;;;-144.22;100.00;60274.75;6073149;29;20255;-69
2022/10/18 11:07:32;;;;;;;12.43;8.87;;;;;;;-144.22;100.00;60274.75;6071927;29;20708;-69
2022/10/18 11:10:56;;;;;;;10.77;8.20;;;;;;;-144.22;100.00;60274.75;6072829;29;20239;-68
2022/10/18 11:14:23;;;;;;;11.37;8.50;;;;;;;-144.22;100.00;60274.75;6079755;29;20232;-68
2022/10/18 11:17:38;;;;;;;12.37;8.33;;;;;;;-144.22;100.00;60274.75;6074074;29;20732;-69
2022/10/18 11:20:44;;;;;;;12.03;8.70;;;;;;;-144.22;100.00;60274.75;6070322;29;20240;-69
2022/10/18 11:23:50;;;;;;;9.73;7.13;;;;;;;21.19;100.00;60274.75;6071925;29;20232;-69
2022/10/18 11:27:15;;;;;;;11.57;8.13;;;;;;;-144.22;100.00;60274.75;6071791;29;20732;-69
2022/10/18 11:30:29;;;;;;;12.07;8.57;;;;;;;-144.22;100.00;60274.75;6078669;29;20240;-68
2022/10/18 11:33:47;;;;;;;12.13;7.33;;;;;;;-144.22;100.00;60274.75;6089216;29;20232;-68
2022/10/18 11:37:28;;;;;;;10.70;8.83;;;;;;;21.65;100.00;60274.75;6071108;29;20236;-68
2022/10/18 11:40:51;;;;;;;11.33;7.80;;;;;;;-144.22;100.00;60274.75;6089833;29;20240;-68
2022/10/18 11:44:00;;;;;;;8.73;7.90;;;;;;;-144.22;100.00;60274.75;6087007;29;20705;-68
2022/10/18 11:47:19;;;;;;;10.07;8.33;;;;;;;-144.22;100.00;60274.75;6088199;29;20247;-68
2022/10/18 11:50:46;;;;;;;12.23;7.70;;;;;;;-144.22;100.00;60274.75;6071915;29;20634;-68
2022/10/18 11:53:50;;;;;;;10.43;8.40;;;;;;;-144.22;100.00;60274.75;6071223;29;20747;-68
2022/10/18 11:57:21;;;;;;;8.47;7.57;;;;;;;-144.22;100.00;60274.75;6087663;29;20617;-68
2022/10/18 12:00:53;;;;;;;8.23;7.40;;;;;;;-144.22;100.00;60274.75;6070397;29;20227;-69
2022/10/18 12:04:04;;;;;;;10.90;7.03;;;;;;;-144.22;100.00;60274.75;6056509;29;20239;-70
2022/10/18 12:07:10;;;;;;;11.27;8.43;;;;;;;-144.22;100.00;60274.75;6087894;29;20236;-68
2022/10/18 12:10:18;;;;;;;10.90;7.77;;;;;;;104.84;100.00;60274.75;6087228;29;20230;-68
2022/10/18 12:13:48;;;;;;;9.37;8.13;;;;;;;-144.22;100.00;60274.75;6087656;29;20250;-68
2022/10/18 12:16:53;;;;;;;9.43;8.03;;;;;;;-144.22;100.00;60274.75;6080348;29;20225;-69
2022/10/18 12:20:33;;;;;;;11.53;7.50;;;;;;;-144.22;100.00;60274.75;6078882;29;20320;-68
2022/10/18 12:23:44;;;;;;;9.80;7.80;;;;;;;32.13;100.00;60274.75;6087045;29;20315;-68
2022/10/18 12:26:50;;;;;;;8.87;7.97;;;;;;;-144.22;100.00;60274.75;6087822;29;20236;-68
2022/10/18 12:29:59;;;;;;;11.03;6.97;;;;;;;-144.22;100.00;60274.75;6087936;29;20719;-69
2022/10/18 12:33:16;;;;;;;9.50;7.25;;;;;;;-144.22;100.00;60274.75;6086789;29;20247;-68
2022/10/18 12:37:12;;;;;;;10.70;7.40;;;;;;;-144.22;100.00;60274.75;6087562;29;20232;-69
2022/10/18 12:40:22;;;;;;;9.32;7.63;;;;;;;-144.22;100.00;60274.75;6069508;29;20232;-69
2022/10/18 12:43:29;;;;;;;14.20;7.20;;;;;;;-144.22;100.00;60274.75;6086077;29;20284;-69
2022/10/18 12:46:55;;;;;;;7.93;6.93;;;;;;;63.28;100.00;60274.75;6086615;29;20235;-68
2022/10/18 12:50:05;;;;;;;8.75;6.53;;;;;;;-144.22;100.00;60274.75;6086669;29;20228;-71
2022/10/18 12:53:18;;;;;;;10.73;6.55;;;;;;;42.51;100.00;60274.75;6086999;29;20272;-69
2022/10/18 12:56:32;;;;;;;10.10;7.18;;;;;;;-144.22;100.00;60274.75;6086527;29;20248;-68
2022/10/18 12:59:35;;;;;;;8.27;6.95;;;;;;;30.14;100.00;60274.75;6070145;29;20267;-68
2022/10/18 13:02:36;;;;;;;8.10;7.07;;;;;;;-144.22;100.00;60274.75;6086418;29;20622;-69
2022/10/18 13:05:50;;;;;;;9.77;7.38;;;;;;;-144.22;100.00;60274.75;6068889;29;20653;-68
2022/10/18 13:09:16;;;;;;;9.63;7.60;;;;;;;-144.22;100.00;60274.75;6086193;29;20668;-68
2022/10/18 13:12:18;;;;;;;8.13;7.32;;;;;;;-144.22;100.00;60274.75;6087217;29;20232;-68
2022/10/18 13:15:46;;;;;;;8.93;7.82;;;;;;;33.42;100.00;60274.75;6085478;29;20238;-68
2022/10/18 13:19:18;;;;;;;11.43;7.53;;;;;;;-144.22;100.00;60274.75;6063389;29;20237;-68
2022/10/18 13:22:42;;;;;;;9.43;6.90;;;;;;;-144.22;100.00;60274.75;6049532;29;20240;-69
2022/10/18 13:26:01;;;;;;;11.80;7.10;;;;;;;-144.22;100.00;60274.75;6074387;29;20243;-69
2022/10/18 13:29:12;;;;;;;12.40;8.68;;;;;;;33.58;100.00;60274.75;6086397;29;20743;-68
2022/10/18 13:32:36;;;;;;;10.00;8.38;;;;;;;-144.22;100.00;60274.75;6085522;29;20271;-68
2022/10/18 13:35:43;;;;;;;10.20;7.35;;;;;;;-144.22;100.00;60274.75;6085452;29;20239;-67
2022/10/18 13:38:54;;;;;;;10.00;7.43;;;;;;;63.28;100.00;60274.75;6085764;29;20728;-67
2022/10/18 13:41:56;;;;;;;11.20;8.50;;;;;;;-144.22;100.00;60274.75;6086019;29;20239;-68
2022/10/18 13:45:29;;;;;;;10.70;7.77;;;;;;;-144.22;100.00;60274.75;6086910;29;20236;-68
2022/10/18 13:48:34;;;;;;;8.60;7.50;;;;;;;-144.22;100.00;60274.75;6084794;29;20259;-68
2022/10/18 13:51:53;;;;;;;11.83;8.47;;;;;;;-144.22;100.00;60274.75;6085409;29;20753;-68
2022/10/18 13:55:20;;;;;;;9.03;7.20;;;;;;;-144.22;100.00;60274.75;6085139;29;20741;-68
2022/10/18 13:58:25;;;;;;;9.27;6.87;;;;;;;-144.22;100.00;60274.75;6085716;29;20243;-68
2022/10/18 14:01:53;;;;;;;9.17;7.23;;;;;;;-144.22;100.00;60274.75;6062799;29;20241;-68
2022/10/18 14:05:14;;;;;;;8.00;7.00;;;;;;;-144.22;100.00;60274.75;6074521;29;20767;-68